sensor_id;sensor_type;location;lat;lon;timestamp;pressure;altitude;pressure_sealevel;temperature;humidity
38786;BME280;24535;45.508;12.252;2022-12-29T00:01:43;102348.13;;;11.64;64.89
38786;BME280;24535;45.508;12.252;2022-12-29T00:04:12;102335.88;;;11.63;65.02
38786;BME280;24535;45.508;12.252;2022-12-29T00:06:38;102329.03;;;11.59;65.41
38786;BME280;24535;45.508;12.252;2022-12-29T00:09:03;102340.34;;;11.61;65.13
38786;BME280;24535;45.508;12.252;2022-12-29T00:11:29;102339.59;;;11.59;65.72
38786;BME280;24535;45.508;12.252;2022-12-29T00:13:55;102351.56;;;11.67;65.24
38786;BME280;24535;45.508;12.252;2022-12-29T00:16:44;102332.16;;;11.68;64.82
38786;BME280;24535;45.508;12.252;2022-12-29T00:19:11;102312.34;;;11.59;64.70
38786;BME280;24535;45.508;12.252;2022-12-29T00:21:59;102293.63;;;11.45;65.27
38786;BME280;24535;45.508;12.252;2022-12-29T00:24:44;102298.13;;;11.43;65.19
38786;BME280;24535;45.508;12.252;2022-12-29T00:27:28;102285.13;;;11.38;65.58
38786;BME280;24535;45.508;12.252;2022-12-29T00:30:16;102277.28;;;11.36;65.53
38786;BME280;24535;45.508;12.252;2022-12-29T00:33:33;102286.00;;;11.38;66.05
38786;BME280;24535;45.508;12.252;2022-12-29T00:39:24;102286.63;;;11.44;66.46
38786;BME280;24535;45.508;12.252;2022-12-29T00:42:09;102282.06;;;11.47;66.22
38786;BME280;24535;45.508;12.252;2022-12-29T00:45:04;102280.44;;;11.45;66.07
38786;BME280;24535;45.508;12.252;2022-12-29T00:47:29;102274.16;;;11.47;65.50
38786;BME280;24535;45.508;12.252;2022-12-29T00:49:55;102271.44;;;11.49;65.32
38786;BME280;24535;45.508;12.252;2022-12-29T00:52:45;102265.19;;;11.51;66.17
38786;BME280;24535;45.508;12.252;2022-12-29T00:55:11;102269.53;;;11.52;66.16
38786;BME280;24535;45.508;12.252;2022-12-29T00:57:57;102264.25;;;11.52;65.85
38786;BME280;24535;45.508;12.252;2022-12-29T01:00:23;102262.31;;;11.56;64.93
38786;BME280;24535;45.508;12.252;2022-12-29T01:02:49;102271.19;;;11.55;65.33
38786;BME280;24535;45.508;12.252;2022-12-29T01:05:14;102258.84;;;11.55;66.35
38786;BME280;24535;45.508;12.252;2022-12-29T01:07:40;102253.19;;;11.63;66.27
38786;BME280;24535;45.508;12.252;2022-12-29T01:10:05;102252.03;;;11.69;65.96
38786;BME280;24535;45.508;12.252;2022-12-29T01:12:37;102262.47;;;11.72;65.72
38786;BME280;24535;45.508;12.252;2022-12-29T01:15:08;102276.22;;;11.78;65.84
38786;BME280;24535;45.508;12.252;2022-12-29T01:17:33;102277.09;;;11.79;65.95
38786;BME280;24535;45.508;12.252;2022-12-29T01:19:59;102277.78;;;11.82;65.66
38786;BME280;24535;45.508;12.252;2022-12-29T01:22:24;102286.53;;;11.84;64.88
38786;BME280;24535;45.508;12.252;2022-12-29T01:24:50;102283.97;;;11.83;64.39
38786;BME280;24535;45.508;12.252;2022-12-29T01:27:15;102289.34;;;11.80;65.34
38786;BME280;24535;45.508;12.252;2022-12-29T01:29:41;102291.06;;;11.81;64.99
38786;BME280;24535;45.508;12.252;2022-12-29T01:32:22;102286.72;;;11.80;64.52
38786;BME280;24535;45.508;12.252;2022-12-29T01:34:47;102286.78;;;11.78;65.13
38786;BME280;24535;45.508;12.252;2022-12-29T01:37:15;102286.78;;;11.78;64.84
38786;BME280;24535;45.508;12.252;2022-12-29T01:39:41;102266.91;;;11.71;64.86
38786;BME280;24535;45.508;12.252;2022-12-29T01:48:38;102277.81;;;11.63;64.58
38786;BME280;24535;45.508;12.252;2022-12-29T01:51:31;102278.06;;;11.57;64.65
38786;BME280;24535;45.508;12.252;2022-12-29T01:54:30;102281.78;;;11.53;64.90
38786;BME280;24535;45.508;12.252;2022-12-29T01:56:59;102277.66;;;11.48;64.55
38786;BME280;24535;45.508;12.252;2022-12-29T01:59:34;102280.44;;;11.45;64.41
38786;BME280;24535;45.508;12.252;2022-12-29T02:02:01;102277.88;;;11.43;65.28
38786;BME280;24535;45.508;12.252;2022-12-29T02:04:30;102276.81;;;11.47;64.92
38786;BME280;24535;45.508;12.252;2022-12-29T02:07:09;102266.38;;;11.44;65.34
38786;BME280;24535;45.508;12.252;2022-12-29T02:09:36;102272.50;;;11.45;65.11
38786;BME280;24535;45.508;12.252;2022-12-29T02:12:02;102269.66;;;11.49;65.54
38786;BME280;24535;45.508;12.252;2022-12-29T02:14:30;102273.94;;;11.52;65.23
38786;BME280;24535;45.508;12.252;2022-12-29T02:26:08;102269.22;;;11.58;65.58
38786;BME280;24535;45.508;12.252;2022-12-29T02:28:53;102269.22;;;11.58;65.14
38786;BME280;24535;45.508;12.252;2022-12-29T02:39:55;102269.94;;;11.62;65.37
38786;BME280;24535;45.508;12.252;2022-12-29T02:42:40;102258.84;;;11.55;64.28
38786;BME280;24535;45.508;12.252;2022-12-29T02:45:27;102245.13;;;11.47;64.34
38786;BME280;24535;45.508;12.252;2022-12-29T02:50:28;102249.63;;;11.45;65.07
38786;BME280;24535;45.508;12.252;2022-12-29T02:53:01;102255.81;;;11.44;65.87
38786;BME280;24535;45.508;12.252;2022-12-29T02:55:28;102245.28;;;11.44;65.51
38786;BME280;24535;45.508;12.252;2022-12-29T03:09:14;102246.63;;;11.53;65.05
38786;BME280;24535;45.508;12.252;2022-12-29T03:12:15;102244.97;;;11.50;64.88
38786;BME280;24535;45.508;12.252;2022-12-29T03:14:48;102238.06;;;11.48;64.01
38786;BME280;24535;45.508;12.252;2022-12-29T03:17:55;102248.69;;;11.46;64.80
38786;BME280;24535;45.508;12.252;2022-12-29T03:20:39;102238.22;;;11.45;64.63
38786;BME280;24535;45.508;12.252;2022-12-29T03:23:07;102236.00;;;11.35;65.02
38786;BME280;24535;45.508;12.252;2022-12-29T03:25:36;102228.94;;;11.36;65.19
38786;BME280;24535;45.508;12.252;2022-12-29T03:28:15;102244.63;;;11.39;66.04
38786;BME280;24535;45.508;12.252;2022-12-29T03:31:04;102240.06;;;11.43;65.59
38786;BME280;24535;45.508;12.252;2022-12-29T03:33:33;102242.72;;;11.43;65.80
38786;BME280;24535;45.508;12.252;2022-12-29T03:39:22;102231.13;;;11.45;65.50
38786;BME280;24535;45.508;12.252;2022-12-29T03:41:51;102235.66;;;11.43;65.17
38786;BME280;24535;45.508;12.252;2022-12-29T03:44:18;102221.03;;;11.36;64.68
38786;BME280;24535;45.508;12.252;2022-12-29T03:46:43;102216.81;;;11.32;65.37
38786;BME280;24535;45.508;12.252;2022-12-29T03:49:44;102215.16;;;11.29;65.54
38786;BME280;24535;45.508;12.252;2022-12-29T03:52:10;102212.69;;;11.26;65.45
38786;BME280;24535;45.508;12.252;2022-12-29T03:54:35;102206.59;;;11.24;65.51
38786;BME280;24535;45.508;12.252;2022-12-29T03:57:01;102216.19;;;11.27;66.04
38786;BME280;24535;45.508;12.252;2022-12-29T03:59:26;102208.41;;;11.24;65.71
38786;BME280;24535;45.508;12.252;2022-12-29T04:02:08;102206.59;;;11.24;65.73
38786;BME280;24535;45.508;12.252;2022-12-29T04:04:33;102217.97;;;11.26;65.75
38786;BME280;24535;45.508;12.252;2022-12-29T04:06:59;102218.94;;;11.24;65.39
38786;BME280;24535;45.508;12.252;2022-12-29T04:09:45;102219.53;;;11.30;66.27
38786;BME280;24535;45.508;12.252;2022-12-29T04:12:11;102235.16;;;11.35;65.94
38786;BME280;24535;45.508;12.252;2022-12-29T04:15:02;102235.88;;;11.38;65.59
38786;BME280;24535;45.508;12.252;2022-12-29T04:17:28;102242.75;;;11.41;65.02
38786;BME280;24535;45.508;12.252;2022-12-29T04:20:00;102246.03;;;11.46;65.07
38786;BME280;24535;45.508;12.252;2022-12-29T04:22:44;102244.19;;;11.48;64.82
38786;BME280;24535;45.508;12.252;2022-12-29T04:25:34;102244.13;;;11.50;64.85
38786;BME280;24535;45.508;12.252;2022-12-29T04:27:59;102225.94;;;11.44;64.28
38786;BME280;24535;45.508;12.252;2022-12-29T04:30:25;102218.25;;;11.39;64.61
38786;BME280;24535;45.508;12.252;2022-12-29T04:32:50;102227.16;;;11.36;64.51
38786;BME280;24535;45.508;12.252;2022-12-29T04:35:25;102226.16;;;11.39;64.78
38786;BME280;24535;45.508;12.252;2022-12-29T04:37:50;102228.00;;;11.37;64.67
38786;BME280;24535;45.508;12.252;2022-12-29T04:40:17;102236.78;;;11.37;64.75
38786;BME280;24535;45.508;12.252;2022-12-29T04:42:42;102241.16;;;11.38;64.44
38786;BME280;24535;45.508;12.252;2022-12-29T04:45:08;102226.31;;;11.36;65.00
38786;BME280;24535;45.508;12.252;2022-12-29T04:47:34;102229.06;;;11.33;64.64
38786;BME280;24535;45.508;12.252;2022-12-29T04:49:59;102243.06;;;11.35;64.21
38786;BME280;24535;45.508;12.252;2022-12-29T04:52:34;102251.88;;;11.34;64.46
38786;BME280;24535;45.508;12.252;2022-12-29T04:55:03;102235.19;;;11.33;65.14
38786;BME280;24535;45.508;12.252;2022-12-29T04:57:29;102218.38;;;11.36;64.62
38786;BME280;24535;45.508;12.252;2022-12-29T04:59:55;102233.16;;;11.40;64.45
38786;BME280;24535;45.508;12.252;2022-12-29T05:02:20;102220.09;;;11.37;65.34
38786;BME280;24535;45.508;12.252;2022-12-29T05:04:46;102226.81;;;11.44;64.81
38786;BME280;24535;45.508;12.252;2022-12-29T05:09:50;102221.59;;;11.43;64.80
38786;BME280;24535;45.508;12.252;2022-12-29T05:12:15;102211.19;;;11.39;64.65
38786;BME280;24535;45.508;12.252;2022-12-29T05:14:44;102209.66;;;11.34;64.38
38786;BME280;24535;45.508;12.252;2022-12-29T05:17:09;102226.38;;;11.34;64.58
38786;BME280;24535;45.508;12.252;2022-12-29T05:19:35;102213.38;;;11.30;65.13
38786;BME280;24535;45.508;12.252;2022-12-29T05:22:00;102221.88;;;11.36;64.75
38786;BME280;24535;45.508;12.252;2022-12-29T05:24:26;102220.88;;;11.39;64.91
38786;BME280;24535;45.508;12.252;2022-12-29T05:26:51;102224.16;;;11.44;64.53
38786;BME280;24535;45.508;12.252;2022-12-29T05:29:16;102229.66;;;11.39;64.48
38786;BME280;24535;45.508;12.252;2022-12-29T05:31:42;102221.97;;;11.35;64.24
38786;BME280;24535;45.508;12.252;2022-12-29T05:34:10;102220.44;;;11.29;64.03
38786;BME280;24535;45.508;12.252;2022-12-29T05:36:36;102225.00;;;11.26;64.23
38786;BME280;24535;45.508;12.252;2022-12-29T05:39:01;102233.06;;;11.23;64.26
38786;BME280;24535;45.508;12.252;2022-12-29T05:41:27;102239.25;;;11.22;64.40
38786;BME280;24535;45.508;12.252;2022-12-29T05:43:52;102241.13;;;11.20;65.08
38786;BME280;24535;45.508;12.252;2022-12-29T05:46:18;102243.66;;;11.21;65.46
38786;BME280;24535;45.508;12.252;2022-12-29T05:48:43;102245.41;;;11.22;65.48
38786;BME280;24535;45.508;12.252;2022-12-29T05:51:09;102258.38;;;11.27;65.93
38786;BME280;24535;45.508;12.252;2022-12-29T05:53:34;102271.28;;;11.33;66.07
38786;BME280;24535;45.508;12.252;2022-12-29T05:55:59;102271.03;;;11.39;66.10
38786;BME280;24535;45.508;12.252;2022-12-29T05:58:25;102252.47;;;11.41;65.21
38786;BME280;24535;45.508;12.252;2022-12-29T06:00:51;102243.13;;;11.33;64.63
38786;BME280;24535;45.508;12.252;2022-12-29T06:03:16;102243.28;;;11.30;65.19
38786;BME280;24535;45.508;12.252;2022-12-29T06:05:44;102260.72;;;11.33;64.99
38786;BME280;24535;45.508;12.252;2022-12-29T06:08:10;102259.25;;;11.27;65.24
38786;BME280;24535;45.508;12.252;2022-12-29T06:10:36;102258.38;;;11.27;65.13
38786;BME280;24535;45.508;12.252;2022-12-29T06:13:01;102255.97;;;11.22;64.70
38786;BME280;24535;45.508;12.252;2022-12-29T06:15:28;102252.53;;;11.20;65.05
38786;BME280;24535;45.508;12.252;2022-12-29T06:17:54;102249.16;;;11.17;65.30
38786;BME280;24535;45.508;12.252;2022-12-29T06:20:20;102251.03;;;11.14;65.01
38786;BME280;24535;45.508;12.252;2022-12-29T06:22:45;102252.84;;;11.12;65.65
38786;BME280;24535;45.508;12.252;2022-12-29T06:25:19;102263.06;;;11.20;65.88
38786;BME280;24535;45.508;12.252;2022-12-29T06:27:44;102261.16;;;11.24;66.09
38786;BME280;24535;45.508;12.252;2022-12-29T06:30:11;102265.28;;;11.29;66.15
38786;BME280;24535;45.508;12.252;2022-12-29T06:32:37;102251.09;;;11.32;65.50
38786;BME280;24535;45.508;12.252;2022-12-29T06:35:03;102242.34;;;11.31;65.00
38786;BME280;24535;45.508;12.252;2022-12-29T06:37:29;102233.06;;;11.23;64.67
38786;BME280;24535;45.508;12.252;2022-12-29T06:40:01;102237.53;;;11.21;64.78
38786;BME280;24535;45.508;12.252;2022-12-29T06:42:27;102229.00;;;11.16;65.06
38786;BME280;24535;45.508;12.252;2022-12-29T06:45:27;102226.44;;;11.14;65.79
38786;BME280;24535;45.508;12.252;2022-12-29T06:47:52;102234.59;;;11.08;65.39
38786;BME280;24535;45.508;12.252;2022-12-29T06:50:17;102232.19;;;11.03;65.84
38786;BME280;24535;45.508;12.252;2022-12-29T06:52:46;102227.84;;;11.02;65.47
38786;BME280;24535;45.508;12.252;2022-12-29T06:55:11;102228.94;;;10.97;66.24
38786;BME280;24535;45.508;12.252;2022-12-29T06:57:37;102229.06;;;10.94;65.54
38786;BME280;24535;45.508;12.252;2022-12-29T07:00:03;102245.81;;;10.93;65.33
38786;BME280;24535;45.508;12.252;2022-12-29T07:02:30;102260.66;;;10.95;66.18
38786;BME280;24535;45.508;12.252;2022-12-29T07:04:55;102251.19;;;10.91;65.50
38786;BME280;24535;45.508;12.252;2022-12-29T07:07:34;102239.06;;;10.87;66.02
38786;BME280;24535;45.508;12.252;2022-12-29T07:09:59;102238.13;;;10.88;65.73
38786;BME280;24535;45.508;12.252;2022-12-29T07:12:24;102235.50;;;10.88;65.66
38786;BME280;24535;45.508;12.252;2022-12-29T07:14:53;102225.06;;;10.85;66.71
38786;BME280;24535;45.508;12.252;2022-12-29T07:17:18;102223.25;;;10.87;66.73
38786;BME280;24535;45.508;12.252;2022-12-29T07:19:44;102221.38;;;10.89;65.89
38786;BME280;24535;45.508;12.252;2022-12-29T07:22:09;102224.19;;;10.86;66.26
38786;BME280;24535;45.508;12.252;2022-12-29T07:24:35;102246.16;;;10.85;66.46
38786;BME280;24535;45.508;12.252;2022-12-29T07:27:00;102259.09;;;10.91;66.94
38786;BME280;24535;45.508;12.252;2022-12-29T07:29:26;102271.78;;;11.02;67.00
38786;BME280;24535;45.508;12.252;2022-12-29T07:31:51;102272.31;;;11.10;67.01
38786;BME280;24535;45.508;12.252;2022-12-29T07:34:17;102269.31;;;11.18;66.80
38786;BME280;24535;45.508;12.252;2022-12-29T07:36:42;102272.47;;;11.26;66.58
38786;BME280;24535;45.508;12.252;2022-12-29T07:39:08;102280.13;;;11.32;66.14
38786;BME280;24535;45.508;12.252;2022-12-29T07:41:33;102271.91;;;11.38;65.94
38786;BME280;24535;45.508;12.252;2022-12-29T07:43:59;102265.88;;;11.36;66.04
38786;BME280;24535;45.508;12.252;2022-12-29T07:46:25;102263.88;;;11.41;66.57
38786;BME280;24535;45.508;12.252;2022-12-29T07:48:50;102259.22;;;11.46;66.24
38786;BME280;24535;45.508;12.252;2022-12-29T07:51:16;102265.41;;;11.47;65.67
38786;BME280;24535;45.508;12.252;2022-12-29T07:53:41;102271.53;;;11.47;65.34
38786;BME280;24535;45.508;12.252;2022-12-29T07:56:07;102270.69;;;11.47;65.54
38786;BME280;24535;45.508;12.252;2022-12-29T07:58:32;102259.41;;;11.43;65.43
38786;BME280;24535;45.508;12.252;2022-12-29T08:03:51;102259.78;;;11.34;65.42
38786;BME280;24535;45.508;12.252;2022-12-29T08:06:16;102266.81;;;11.35;65.72
38786;BME280;24535;45.508;12.252;2022-12-29T08:09:13;102272.81;;;11.38;65.89
38786;BME280;24535;45.508;12.252;2022-12-29T08:11:39;102263.25;;;11.36;65.92
38786;BME280;24535;45.508;12.252;2022-12-29T08:14:05;102266.00;;;11.33;66.07
38786;BME280;24535;45.508;12.252;2022-12-29T08:16:31;102284.97;;;11.41;66.65
38786;BME280;24535;45.508;12.252;2022-12-29T08:18:57;102272.63;;;11.42;66.05
38786;BME280;24535;45.508;12.252;2022-12-29T08:21:33;102282.22;;;11.44;66.41
38786;BME280;24535;45.508;12.252;2022-12-29T08:23:58;102274.38;;;11.43;65.76
38786;BME280;24535;45.508;12.252;2022-12-29T08:26:24;102288.47;;;11.42;66.08
38786;BME280;24535;45.508;12.252;2022-12-29T08:28:52;102285.78;;;11.43;66.38
38786;BME280;24535;45.508;12.252;2022-12-29T08:31:18;102295.19;;;11.49;66.55
38786;BME280;24535;45.508;12.252;2022-12-29T08:33:43;102294.22;;;11.51;66.01
38786;BME280;24535;45.508;12.252;2022-12-29T08:36:09;102304.97;;;11.66;65.96
38786;BME280;24535;45.508;12.252;2022-12-29T08:38:34;102294.19;;;11.70;66.63
38786;BME280;24535;45.508;12.252;2022-12-29T08:41:00;102293.22;;;11.73;65.67
38786;BME280;24535;45.508;12.252;2022-12-29T08:43:29;102318.31;;;11.83;66.22
38786;BME280;24535;45.508;12.252;2022-12-29T08:45:57;102306.66;;;11.87;66.11
38786;BME280;24535;45.508;12.252;2022-12-29T08:48:24;102299.38;;;11.92;65.67
38786;BME280;24535;45.508;12.252;2022-12-29T08:50:49;102302.66;;;11.97;65.33
38786;BME280;24535;45.508;12.252;2022-12-29T08:53:16;102306.13;;;11.98;65.27
38786;BME280;24535;45.508;12.252;2022-12-29T08:55:45;102307.00;;;11.98;65.30
38786;BME280;24535;45.508;12.252;2022-12-29T08:58:11;102297.38;;;11.97;65.07
38786;BME280;24535;45.508;12.252;2022-12-29T09:00:45;102301.00;;;11.95;65.45
38786;BME280;24535;45.508;12.252;2022-12-29T09:03:11;102306.94;;;12.00;65.50
38786;BME280;24535;45.508;12.252;2022-12-29T09:05:36;102305.00;;;12.03;65.33
38786;BME280;24535;45.508;12.252;2022-12-29T09:08:02;102311.78;;;12.09;65.91
38786;BME280;24535;45.508;12.252;2022-12-29T09:10:29;102320.19;;;12.17;65.76
38786;BME280;24535;45.508;12.252;2022-12-29T09:12:54;102324.31;;;12.23;65.21
38786;BME280;24535;45.508;12.252;2022-12-29T09:15:20;102337.94;;;12.32;65.31
38786;BME280;24535;45.508;12.252;2022-12-29T09:17:45;102341.06;;;12.41;65.00
38786;BME280;24535;45.508;12.252;2022-12-29T09:20:19;102336.28;;;12.49;65.36
38786;BME280;24535;45.508;12.252;2022-12-29T09:22:52;102321.34;;;12.48;64.83
38786;BME280;24535;45.508;12.252;2022-12-29T09:25:19;102328.19;;;12.52;64.81
38786;BME280;24535;45.508;12.252;2022-12-29T09:27:45;102331.38;;;12.58;64.06
38786;BME280;24535;45.508;12.252;2022-12-29T09:30:11;102329.44;;;12.62;63.98
38786;BME280;24535;45.508;12.252;2022-12-29T09:32:37;102324.25;;;12.60;64.32
38786;BME280;24535;45.508;12.252;2022-12-29T09:35:04;102330.38;;;12.61;64.10
38786;BME280;24535;45.508;12.252;2022-12-29T09:37:29;102327.03;;;12.57;63.82
38786;BME280;24535;45.508;12.252;2022-12-29T09:39:55;102319.25;;;12.54;64.24
38786;BME280;24535;45.508;12.252;2022-12-29T09:42:29;102332.16;;;12.60;63.95
38786;BME280;24535;45.508;12.252;2022-12-29T09:45:04;102324.06;;;12.63;64.34
38786;BME280;24535;45.508;12.252;2022-12-29T09:47:44;102330.91;;;12.68;63.49
38786;BME280;24535;45.508;12.252;2022-12-29T09:50:30;102328.50;;;12.63;63.82
38786;BME280;24535;45.508;12.252;2022-12-29T09:53:24;102320.41;;;12.66;64.14
38786;BME280;24535;45.508;12.252;2022-12-29T09:55:55;102310.69;;;12.67;63.75
38786;BME280;24535;45.508;12.252;2022-12-29T09:58:37;102319.34;;;12.70;63.67
38786;BME280;24535;45.508;12.252;2022-12-29T10:01:06;102322.91;;;12.69;63.46
38786;BME280;24535;45.508;12.252;2022-12-29T10:03:48;102325.72;;;12.66;64.10
38786;BME280;24535;45.508;12.252;2022-12-29T10:06:24;102321.28;;;12.67;63.54
38786;BME280;24535;45.508;12.252;2022-12-29T10:09:02;102326.56;;;12.67;63.62
38786;BME280;24535;45.508;12.252;2022-12-29T10:22:28;102310.69;;;12.67;64.16
38786;BME280;24535;45.508;12.252;2022-12-29T10:25:00;102307.09;;;12.68;64.38
38786;BME280;24535;45.508;12.252;2022-12-29T10:27:30;102293.50;;;12.75;64.22
38786;BME280;24535;45.508;12.252;2022-12-29T10:29:59;102284.72;;;12.75;63.49
38786;BME280;24535;45.508;12.252;2022-12-29T10:32:34;102277.56;;;12.77;63.38
38786;BME280;24535;45.508;12.252;2022-12-29T10:35:20;102277.63;;;12.75;63.66
38786;BME280;24535;45.508;12.252;2022-12-29T10:38:10;102270.56;;;12.76;63.06
38786;BME280;24535;45.508;12.252;2022-12-29T10:46:13;102254.94;;;12.89;63.56
38786;BME280;24535;45.508;12.252;2022-12-29T10:48:39;102242.38;;;12.92;63.75
38786;BME280;24535;45.508;12.252;2022-12-29T10:51:06;102245.66;;;12.97;63.48
38786;BME280;24535;45.508;12.252;2022-12-29T10:59:44;102238.41;;;13.01;63.05
38786;BME280;24535;45.508;12.252;2022-12-29T11:08:10;102229.88;;;13.11;63.18
38786;BME280;24535;45.508;12.252;2022-12-29T11:10:58;102229.72;;;13.15;63.51
38786;BME280;24535;45.508;12.252;2022-12-29T11:13:34;102221.78;;;13.15;62.93
38786;BME280;24535;45.508;12.252;2022-12-29T11:16:12;102234.56;;;13.24;63.60
38786;BME280;24535;45.508;12.252;2022-12-29T11:18:47;102233.63;;;13.25;62.73
38786;BME280;24535;45.508;12.252;2022-12-29T11:24:25;102229.63;;;13.33;62.66
38786;BME280;24535;45.508;12.252;2022-12-29T11:30:23;102227.84;;;13.34;62.18
38786;BME280;24535;45.508;12.252;2022-12-29T11:32:53;102232.78;;;13.40;62.58
38786;BME280;24535;45.508;12.252;2022-12-29T11:35:41;102221.09;;;13.44;62.49
38786;BME280;24535;45.508;12.252;2022-12-29T11:38:55;102223.56;;;13.47;61.98
38786;BME280;24535;45.508;12.252;2022-12-29T11:41:23;102225.28;;;13.48;62.42
38786;BME280;24535;45.508;12.252;2022-12-29T11:43:49;102212.22;;;13.45;61.69
38786;BME280;24535;45.508;12.252;2022-12-29T11:46:30;102218.19;;;13.49;62.37
38786;BME280;24535;45.508;12.252;2022-12-29T11:49:03;102228.59;;;13.52;62.23
38786;BME280;24535;45.508;12.252;2022-12-29T11:51:46;102214.44;;;13.53;62.05
38786;BME280;24535;45.508;12.252;2022-12-29T11:54:36;102204.03;;;13.50;61.85
38786;BME280;24535;45.508;12.252;2022-12-29T11:57:19;102193.19;;;13.54;62.24
38786;BME280;24535;45.508;12.252;2022-12-29T11:59:54;102184.44;;;13.52;62.01
38786;BME280;24535;45.508;12.252;2022-12-29T12:02:31;102183.34;;;13.56;61.89
38786;BME280;24535;45.508;12.252;2022-12-29T12:05:50;102179.56;;;13.60;61.88
38786;BME280;24535;45.508;12.252;2022-12-29T12:10:58;102193.34;;;13.67;62.18
38786;BME280;24535;45.508;12.252;2022-12-29T12:16:23;102179.09;;;13.70;61.58
38786;BME280;24535;45.508;12.252;2022-12-29T12:19:03;102168.28;;;13.73;61.79
38786;BME280;24535;45.508;12.252;2022-12-29T12:21:46;102159.44;;;13.74;61.49
38786;BME280;24535;45.508;12.252;2022-12-29T12:27:10;102152.34;;;13.74;61.23
38786;BME280;24535;45.508;12.252;2022-12-29T12:30:00;102150.53;;;13.75;61.65
38786;BME280;24535;45.508;12.252;2022-12-29T12:35:04;102145.81;;;13.80;61.46
38786;BME280;24535;45.508;12.252;2022-12-29T12:37:37;102152.75;;;13.82;61.60
38786;BME280;24535;45.508;12.252;2022-12-29T12:43:15;102158.03;;;13.82;61.31
38786;BME280;24535;45.508;12.252;2022-12-29T13:14:46;102120.44;;;13.76;61.15
38786;BME280;24535;45.508;12.252;2022-12-29T13:17:27;102122.34;;;13.74;60.96
38786;BME280;24535;45.508;12.252;2022-12-29T13:20:39;102128.84;;;13.68;60.86
38786;BME280;24535;45.508;12.252;2022-12-29T13:23:48;102132.59;;;13.64;61.05
38786;BME280;24535;45.508;12.252;2022-12-29T13:26:20;102133.81;;;13.58;60.98
38786;BME280;24535;45.508;12.252;2022-12-29T13:29:16;102131.91;;;13.60;61.21
38786;BME280;24535;45.508;12.252;2022-12-29T13:38:15;102134.09;;;13.54;61.88
38786;BME280;24535;45.508;12.252;2022-12-29T13:41:07;102148.00;;;13.57;61.88
38786;BME280;24535;45.508;12.252;2022-12-29T13:43:37;102135.69;;;13.56;61.58
38786;BME280;24535;45.508;12.252;2022-12-29T13:47:10;102127.94;;;13.53;61.72
38786;BME280;24535;45.508;12.252;2022-12-29T13:49:08;102131.44;;;13.54;62.21
38786;BME280;24535;45.508;12.252;2022-12-29T13:51:41;102139.09;;;13.58;61.49
38786;BME280;24535;45.508;12.252;2022-12-29T13:54:13;102142.88;;;13.54;62.01
38786;BME280;24535;45.508;12.252;2022-12-29T13:57:08;102151.75;;;13.53;61.16
38786;BME280;24535;45.508;12.252;2022-12-29T14:05:33;102151.94;;;13.50;62.09
38786;BME280;24535;45.508;12.252;2022-12-29T14:08:03;102154.66;;;13.49;62.44
38786;BME280;24535;45.508;12.252;2022-12-29T14:11:14;102158.94;;;13.51;62.63
38786;BME280;24535;45.508;12.252;2022-12-29T14:13:42;102165.91;;;13.52;62.43
38786;BME280;24535;45.508;12.252;2022-12-29T14:16:24;102171.22;;;13.52;61.91
38786;BME280;24535;45.508;12.252;2022-12-29T14:18:50;102180.00;;;13.53;62.00
38786;BME280;24535;45.508;12.252;2022-12-29T14:23:44;102183.69;;;13.50;63.27
38786;BME280;24535;45.508;12.252;2022-12-29T14:28:54;102174.66;;;13.54;63.40
38786;BME280;24535;45.508;12.252;2022-12-29T14:36:40;102160.81;;;13.49;63.39
38786;BME280;24535;45.508;12.252;2022-12-29T14:42:03;102162.53;;;13.50;62.78
38786;BME280;24535;45.508;12.252;2022-12-29T14:44:29;102156.63;;;13.45;62.94
38786;BME280;24535;45.508;12.252;2022-12-29T14:49:30;102163.53;;;13.48;62.79
38786;BME280;24535;45.508;12.252;2022-12-29T14:52:15;102160.13;;;13.46;63.52
38786;BME280;24535;45.508;12.252;2022-12-29T14:57:36;102160.88;;;13.48;63.84
38786;BME280;24535;45.508;12.252;2022-12-29T15:00:53;102160.03;;;13.47;63.99
38786;BME280;24535;45.508;12.252;2022-12-29T15:03:06;102164.59;;;13.45;64.30
38786;BME280;24535;45.508;12.252;2022-12-29T15:13:45;102156.28;;;13.35;64.97
38786;BME280;24535;45.508;12.252;2022-12-29T15:16:33;102167.66;;;13.38;64.98
38786;BME280;24535;45.508;12.252;2022-12-29T15:19:04;102165.06;;;13.36;65.40
38786;BME280;24535;45.508;12.252;2022-12-29T15:21:48;102173.78;;;13.38;65.42
38786;BME280;24535;45.508;12.252;2022-12-29T15:24:14;102155.53;;;13.33;64.77
38786;BME280;24535;45.508;12.252;2022-12-29T15:26:42;102151.25;;;13.31;65.41
38786;BME280;24535;45.508;12.252;2022-12-29T15:29:38;102149.38;;;13.33;65.26
38786;BME280;24535;45.508;12.252;2022-12-29T15:35:34;102143.47;;;13.28;65.86
38786;BME280;24535;45.508;12.252;2022-12-29T15:38:28;102138.38;;;13.25;65.09
38786;BME280;24535;45.508;12.252;2022-12-29T15:41:05;102132.28;;;13.23;65.85
38786;BME280;24535;45.508;12.252;2022-12-29T15:46:40;102136.69;;;13.22;66.07
38786;BME280;24535;45.508;12.252;2022-12-29T15:49:11;102128.19;;;13.17;65.74
38786;BME280;24535;45.508;12.252;2022-12-29T15:51:45;102131.41;;;13.22;66.55
38786;BME280;24535;45.508;12.252;2022-12-29T15:54:19;102129.03;;;13.18;66.99
38786;BME280;24535;45.508;12.252;2022-12-29T15:56:46;102131.56;;;13.19;66.73
38786;BME280;24535;45.508;12.252;2022-12-29T16:02:10;102133.47;;;13.17;66.54
38786;BME280;24535;45.508;12.252;2022-12-29T16:04:35;102124.75;;;13.15;66.39